Aérodrome :
LOGIN :

S'inscrire | Disclaimer

   EN    FR    IT 

 










Légende :    VFR   VFR Marginal   IFR   IFR Intensif   IFR Très Intensif
Visi : 
Plafond : 
>= 8 km
>= 3000ft
5 à 8 km
1000 à 3000 ft
1500m à 5 km
500 à 1000 ft
800 à 1500m
200 à 500 ft
< 800m
< 200 ft
Symboles :   Orages  Brouillard  Fortes neiges  Fortes précipitations  Vent > 20 kt
SIGMETs :   Divers  Orages  Givrage  Turbulence  Onde Orograph.  Cendres Volcan.






- Altitude de l'aérodrome : 755 ft
- Code IATA : DRS


EDDC - Dresden Klotzsche

DERNIER METAR :
  • 011420Z 26009KT 200V300 CAVOK 08/M07 Q1018 NOSIG

METARs EXPIRÉS :
  • 011350Z 24008KT 210V300 CAVOK 07/M08 Q1018 NOSIG
  • 011320Z VRB05KT CAVOK 07/M07 Q1019 NOSIG
  • 011250Z VRB04KT CAVOK 07/M07 Q1019 NOSIG
  • 011220Z 28008KT 230V340 CAVOK 06/M07 Q1019 NOSIG
  • 011150Z 24007KT 180V320 CAVOK 06/M07 Q1020 NOSIG

TAF TAF EDDC
Valide du 01 à 12h jusqu'au 02 à 12h UTC


011100Z 0112/0212 26010KT CAVOK
BECMG 0116/0119 23004KT
BECMG 0207/0210 27012KT



MET'MAP, la Météo Aéronautique d'un coup d'oeil ! - Copyright ORBIFLY Décembre 2007 - Disclaimer

ORBIFLY MET'MAP TEAM :

Programmation & Développement : Alexandra Zaïnal
Sur une idée originale de : Baudouin d'Aumeries
Assistance à la programmation : Marc-Olivier Méhu
Soutien technique & logistique : Manuel Goepfert

Contact : metmap@orbifly.com




SOURCES & CREDITS :

   NOAA